sensor_id;sensor_type;location;lat;lon;timestamp;temperature;humidity
21582;DHT22;10952;50.836;4.348;2022-10-31T00:01:33;16.90;99.90
21582;DHT22;10952;50.836;4.348;2022-10-31T00:03:59;16.90;99.90
21582;DHT22;10952;50.836;4.348;2022-10-31T00:06:27;16.90;99.90
21582;DHT22;10952;50.836;4.348;2022-10-31T00:08:55;16.70;99.90
21582;DHT22;10952;50.836;4.348;2022-10-31T00:11:23;16.60;99.90
21582;DHT22;10952;50.836;4.348;2022-10-31T00:13:48;16.60;99.90
21582;DHT22;10952;50.836;4.348;2022-10-31T00:16:15;16.60;99.90
21582;DHT22;10952;50.836;4.348;2022-10-31T00:18:41;16.50;99.90
21582;DHT22;10952;50.836;4.348;2022-10-31T00:21:06;16.50;99.90
21582;DHT22;10952;50.836;4.348;2022-10-31T00:23:32;16.50;99.90
21582;DHT22;10952;50.836;4.348;2022-10-31T00:26:04;16.60;99.90
21582;DHT22;10952;50.836;4.348;2022-10-31T00:28:31;16.50;99.90
21582;DHT22;10952;50.836;4.348;2022-10-31T00:31:08;16.50;99.90
21582;DHT22;10952;50.836;4.348;2022-10-31T00:33:36;16.30;99.90
21582;DHT22;10952;50.836;4.348;2022-10-31T00:36:02;16.40;99.90
21582;DHT22;10952;50.836;4.348;2022-10-31T00:38:28;16.30;99.90
21582;DHT22;10952;50.836;4.348;2022-10-31T00:40:54;16.40;99.90
21582;DHT22;10952;50.836;4.348;2022-10-31T00:43:19;16.40;99.90
21582;DHT22;10952;50.836;4.348;2022-10-31T00:45:45;16.50;99.90
21582;DHT22;10952;50.836;4.348;2022-10-31T00:48:10;16.40;99.90
21582;DHT22;10952;50.836;4.348;2022-10-31T00:50:36;16.50;99.90
21582;DHT22;10952;50.836;4.348;2022-10-31T00:53:02;16.50;99.90
21582;DHT22;10952;50.836;4.348;2022-10-31T00:55:28;16.50;99.90
21582;DHT22;10952;50.836;4.348;2022-10-31T00:57:53;16.50;99.90
21582;DHT22;10952;50.836;4.348;2022-10-31T01:00:19;16.50;99.90
21582;DHT22;10952;50.836;4.348;2022-10-31T01:02:45;16.50;99.90
21582;DHT22;10952;50.836;4.348;2022-10-31T01:05:11;16.50;99.90
21582;DHT22;10952;50.836;4.348;2022-10-31T01:07:38;16.50;99.90
21582;DHT22;10952;50.836;4.348;2022-10-31T01:10:06;16.40;99.90
21582;DHT22;10952;50.836;4.348;2022-10-31T01:12:42;16.30;99.90
21582;DHT22;10952;50.836;4.348;2022-10-31T01:15:10;16.20;99.90
21582;DHT22;10952;50.836;4.348;2022-10-31T01:17:37;16.20;99.90
21582;DHT22;10952;50.836;4.348;2022-10-31T01:20:04;16.40;99.90
21582;DHT22;10952;50.836;4.348;2022-10-31T01:22:30;16.30;99.90
21582;DHT22;10952;50.836;4.348;2022-10-31T01:24:56;16.40;99.90
21582;DHT22;10952;50.836;4.348;2022-10-31T01:27:22;16.40;99.90
21582;DHT22;10952;50.836;4.348;2022-10-31T01:29:47;16.40;99.90
21582;DHT22;10952;50.836;4.348;2022-10-31T01:32:13;16.40;99.90
21582;DHT22;10952;50.836;4.348;2022-10-31T01:34:38;16.30;99.90
21582;DHT22;10952;50.836;4.348;2022-10-31T01:37:04;16.30;99.90
21582;DHT22;10952;50.836;4.348;2022-10-31T01:39:30;16.30;99.90
21582;DHT22;10952;50.836;4.348;2022-10-31T01:41:55;16.30;99.90
21582;DHT22;10952;50.836;4.348;2022-10-31T01:49:35;16.40;99.90
21582;DHT22;10952;50.836;4.348;2022-10-31T01:52:10;16.30;99.90
21582;DHT22;10952;50.836;4.348;2022-10-31T01:54:47;16.30;99.90
21582;DHT22;10952;50.836;4.348;2022-10-31T01:57:18;16.20;99.90
21582;DHT22;10952;50.836;4.348;2022-10-31T01:59:48;16.20;99.90
21582;DHT22;10952;50.836;4.348;2022-10-31T02:02:15;16.30;99.90
21582;DHT22;10952;50.836;4.348;2022-10-31T02:04:42;16.30;99.90
21582;DHT22;10952;50.836;4.348;2022-10-31T02:07:13;16.20;99.90
21582;DHT22;10952;50.836;4.348;2022-10-31T02:09:40;16.20;99.90
21582;DHT22;10952;50.836;4.348;2022-10-31T02:12:06;16.20;99.90
21582;DHT22;10952;50.836;4.348;2022-10-31T02:14:35;16.20;99.90
21582;DHT22;10952;50.836;4.348;2022-10-31T02:17:02;16.10;99.90
21582;DHT22;10952;50.836;4.348;2022-10-31T02:22:28;16.10;99.90
21582;DHT22;10952;50.836;4.348;2022-10-31T02:33:44;16.00;99.90
21582;DHT22;10952;50.836;4.348;2022-10-31T02:39:44;16.10;99.90
21582;DHT22;10952;50.836;4.348;2022-10-31T02:44:50;15.90;99.90
21582;DHT22;10952;50.836;4.348;2022-10-31T02:47:21;15.80;99.90
21582;DHT22;10952;50.836;4.348;2022-10-31T02:49:57;15.70;99.90
21582;DHT22;10952;50.836;4.348;2022-10-31T02:52:30;15.60;99.90
21582;DHT22;10952;50.836;4.348;2022-10-31T02:54:56;15.60;99.90
21582;DHT22;10952;50.836;4.348;2022-10-31T02:57:29;15.60;99.90
21582;DHT22;10952;50.836;4.348;2022-10-31T03:00:07;15.60;99.90
21582;DHT22;10952;50.836;4.348;2022-10-31T03:10:59;15.40;99.90
21582;DHT22;10952;50.836;4.348;2022-10-31T03:13:46;15.30;99.90
21582;DHT22;10952;50.836;4.348;2022-10-31T03:16:37;15.30;99.90
21582;DHT22;10952;50.836;4.348;2022-10-31T03:19:10;15.40;99.90
21582;DHT22;10952;50.836;4.348;2022-10-31T03:21:50;15.40;99.90
21582;DHT22;10952;50.836;4.348;2022-10-31T03:24:16;15.50;99.90
21582;DHT22;10952;50.836;4.348;2022-10-31T03:26:47;15.50;99.90
21582;DHT22;10952;50.836;4.348;2022-10-31T03:29:16;15.40;99.90
21582;DHT22;10952;50.836;4.348;2022-10-31T03:31:54;15.40;99.90
21582;DHT22;10952;50.836;4.348;2022-10-31T03:34:21;15.30;99.90
21582;DHT22;10952;50.836;4.348;2022-10-31T03:36:49;15.30;99.90
21582;DHT22;10952;50.836;4.348;2022-10-31T03:39:18;15.30;99.90
21582;DHT22;10952;50.836;4.348;2022-10-31T03:41:49;15.30;99.90
21582;DHT22;10952;50.836;4.348;2022-10-31T03:44:17;15.30;99.90
21582;DHT22;10952;50.836;4.348;2022-10-31T03:46:44;15.40;99.90
21582;DHT22;10952;50.836;4.348;2022-10-31T03:49:12;15.40;99.90
21582;DHT22;10952;50.836;4.348;2022-10-31T03:51:40;15.40;99.90
21582;DHT22;10952;50.836;4.348;2022-10-31T03:54:25;15.30;99.90
21582;DHT22;10952;50.836;4.348;2022-10-31T03:56:57;15.30;99.90
21582;DHT22;10952;50.836;4.348;2022-10-31T03:59:33;15.20;99.90
21582;DHT22;10952;50.836;4.348;2022-10-31T04:02:05;15.20;99.90
21582;DHT22;10952;50.836;4.348;2022-10-31T04:04:33;15.20;99.90
21582;DHT22;10952;50.836;4.348;2022-10-31T04:07:00;15.20;99.90
21582;DHT22;10952;50.836;4.348;2022-10-31T04:09:27;15.20;99.90
21582;DHT22;10952;50.836;4.348;2022-10-31T04:11:56;15.30;99.90
21582;DHT22;10952;50.836;4.348;2022-10-31T04:14:24;15.30;99.90
21582;DHT22;10952;50.836;4.348;2022-10-31T04:16:50;15.50;99.90
21582;DHT22;10952;50.836;4.348;2022-10-31T04:19:16;15.50;99.90
21582;DHT22;10952;50.836;4.348;2022-10-31T04:21:41;15.50;99.90
21582;DHT22;10952;50.836;4.348;2022-10-31T04:24:11;15.50;99.90
21582;DHT22;10952;50.836;4.348;2022-10-31T04:26:37;15.30;99.90
21582;DHT22;10952;50.836;4.348;2022-10-31T04:29:03;15.20;99.90
21582;DHT22;10952;50.836;4.348;2022-10-31T04:31:28;15.20;99.90
21582;DHT22;10952;50.836;4.348;2022-10-31T04:33:54;15.10;99.90
21582;DHT22;10952;50.836;4.348;2022-10-31T04:36:20;15.10;99.90
21582;DHT22;10952;50.836;4.348;2022-10-31T04:38:45;15.10;99.90
21582;DHT22;10952;50.836;4.348;2022-10-31T04:41:11;15.10;99.90
21582;DHT22;10952;50.836;4.348;2022-10-31T04:43:36;15.10;99.90
21582;DHT22;10952;50.836;4.348;2022-10-31T04:46:02;15.00;99.90
21582;DHT22;10952;50.836;4.348;2022-10-31T04:48:28;14.90;99.90
21582;DHT22;10952;50.836;4.348;2022-10-31T04:50:59;14.90;99.90
21582;DHT22;10952;50.836;4.348;2022-10-31T04:53:24;14.90;99.90
21582;DHT22;10952;50.836;4.348;2022-10-31T04:55:50;14.90;99.90
21582;DHT22;10952;50.836;4.348;2022-10-31T04:58:16;14.80;99.90
21582;DHT22;10952;50.836;4.348;2022-10-31T05:00:41;14.80;99.90
21582;DHT22;10952;50.836;4.348;2022-10-31T05:03:07;14.80;99.90
21582;DHT22;10952;50.836;4.348;2022-10-31T05:05:32;14.80;99.90
21582;DHT22;10952;50.836;4.348;2022-10-31T05:07:58;14.80;99.90
21582;DHT22;10952;50.836;4.348;2022-10-31T05:10:27;14.80;99.90
21582;DHT22;10952;50.836;4.348;2022-10-31T05:12:55;14.80;99.90
21582;DHT22;10952;50.836;4.348;2022-10-31T05:15:22;14.80;99.90
21582;DHT22;10952;50.836;4.348;2022-10-31T05:17:49;14.80;99.90
21582;DHT22;10952;50.836;4.348;2022-10-31T05:20:16;14.80;99.90
21582;DHT22;10952;50.836;4.348;2022-10-31T05:22:49;14.80;99.90
21582;DHT22;10952;50.836;4.348;2022-10-31T05:25:16;14.80;99.90
21582;DHT22;10952;50.836;4.348;2022-10-31T05:27:46;14.80;99.90
21582;DHT22;10952;50.836;4.348;2022-10-31T05:30:14;14.90;99.90
21582;DHT22;10952;50.836;4.348;2022-10-31T05:32:45;14.90;99.90
21582;DHT22;10952;50.836;4.348;2022-10-31T05:35:13;14.90;99.90
21582;DHT22;10952;50.836;4.348;2022-10-31T05:37:39;15.00;99.90
21582;DHT22;10952;50.836;4.348;2022-10-31T05:40:08;15.00;99.90
21582;DHT22;10952;50.836;4.348;2022-10-31T05:42:34;15.00;99.90
21582;DHT22;10952;50.836;4.348;2022-10-31T05:44:59;14.90;99.90
21582;DHT22;10952;50.836;4.348;2022-10-31T05:47:25;14.90;99.90
21582;DHT22;10952;50.836;4.348;2022-10-31T05:49:51;14.90;99.90
21582;DHT22;10952;50.836;4.348;2022-10-31T05:52:17;14.90;99.90
21582;DHT22;10952;50.836;4.348;2022-10-31T05:54:42;15.10;99.90
21582;DHT22;10952;50.836;4.348;2022-10-31T05:57:08;15.00;99.90
21582;DHT22;10952;50.836;4.348;2022-10-31T05:59:34;15.10;99.90
21582;DHT22;10952;50.836;4.348;2022-10-31T06:01:59;15.00;99.90
21582;DHT22;10952;50.836;4.348;2022-10-31T06:04:25;15.00;99.90
21582;DHT22;10952;50.836;4.348;2022-10-31T06:06:50;15.00;99.90
21582;DHT22;10952;50.836;4.348;2022-10-31T06:09:16;15.00;99.90
21582;DHT22;10952;50.836;4.348;2022-10-31T06:11:41;15.00;99.90
21582;DHT22;10952;50.836;4.348;2022-10-31T06:14:07;15.00;99.90
21582;DHT22;10952;50.836;4.348;2022-10-31T06:16:33;15.10;99.90
21582;DHT22;10952;50.836;4.348;2022-10-31T06:18:58;15.10;99.90
21582;DHT22;10952;50.836;4.348;2022-10-31T06:21:24;15.20;99.90
21582;DHT22;10952;50.836;4.348;2022-10-31T06:23:50;15.20;99.90
21582;DHT22;10952;50.836;4.348;2022-10-31T06:26:16;15.20;99.90
21582;DHT22;10952;50.836;4.348;2022-10-31T06:28:41;15.20;99.90
21582;DHT22;10952;50.836;4.348;2022-10-31T06:31:07;15.20;99.90
21582;DHT22;10952;50.836;4.348;2022-10-31T06:33:34;15.20;99.90
21582;DHT22;10952;50.836;4.348;2022-10-31T06:35:59;15.20;99.90
21582;DHT22;10952;50.836;4.348;2022-10-31T06:38:29;15.20;99.90
21582;DHT22;10952;50.836;4.348;2022-10-31T06:40:54;15.20;99.90
21582;DHT22;10952;50.836;4.348;2022-10-31T06:43:21;15.30;99.90
21582;DHT22;10952;50.836;4.348;2022-10-31T06:45:47;15.30;99.90
21582;DHT22;10952;50.836;4.348;2022-10-31T06:48:13;15.20;99.90
21582;DHT22;10952;50.836;4.348;2022-10-31T06:50:38;15.30;99.90
21582;DHT22;10952;50.836;4.348;2022-10-31T06:53:04;15.30;99.90
21582;DHT22;10952;50.836;4.348;2022-10-31T06:55:30;15.50;99.90
21582;DHT22;10952;50.836;4.348;2022-10-31T06:57:58;15.40;99.90
21582;DHT22;10952;50.836;4.348;2022-10-31T07:00:25;15.50;99.90
21582;DHT22;10952;50.836;4.348;2022-10-31T07:03:03;15.60;99.90
21582;DHT22;10952;50.836;4.348;2022-10-31T07:05:29;15.60;99.90
21582;DHT22;10952;50.836;4.348;2022-10-31T07:07:57;15.60;99.90
21582;DHT22;10952;50.836;4.348;2022-10-31T07:10:24;15.60;99.90
21582;DHT22;10952;50.836;4.348;2022-10-31T07:12:55;15.60;99.90
21582;DHT22;10952;50.836;4.348;2022-10-31T07:15:21;15.50;99.90
21582;DHT22;10952;50.836;4.348;2022-10-31T07:17:47;15.70;99.90
21582;DHT22;10952;50.836;4.348;2022-10-31T07:20:13;15.80;99.90
21582;DHT22;10952;50.836;4.348;2022-10-31T07:22:38;16.00;99.90
21582;DHT22;10952;50.836;4.348;2022-10-31T07:25:04;16.00;99.90
21582;DHT22;10952;50.836;4.348;2022-10-31T07:27:36;16.10;99.90
21582;DHT22;10952;50.836;4.348;2022-10-31T07:30:02;16.00;99.90
21582;DHT22;10952;50.836;4.348;2022-10-31T07:32:28;15.90;99.90
21582;DHT22;10952;50.836;4.348;2022-10-31T07:35:02;15.80;99.90
21582;DHT22;10952;50.836;4.348;2022-10-31T07:37:28;15.70;99.90
21582;DHT22;10952;50.836;4.348;2022-10-31T07:39:53;15.60;99.90
21582;DHT22;10952;50.836;4.348;2022-10-31T07:42:19;15.60;99.90
21582;DHT22;10952;50.836;4.348;2022-10-31T07:44:44;15.50;99.90
21582;DHT22;10952;50.836;4.348;2022-10-31T07:47:10;15.60;99.90
21582;DHT22;10952;50.836;4.348;2022-10-31T07:49:36;15.70;99.90
21582;DHT22;10952;50.836;4.348;2022-10-31T07:52:01;15.70;99.90
21582;DHT22;10952;50.836;4.348;2022-10-31T07:54:27;15.70;99.90
21582;DHT22;10952;50.836;4.348;2022-10-31T07:56:52;15.70;99.90
21582;DHT22;10952;50.836;4.348;2022-10-31T07:59:18;15.90;99.90
21582;DHT22;10952;50.836;4.348;2022-10-31T08:01:44;16.10;99.90
21582;DHT22;10952;50.836;4.348;2022-10-31T08:04:09;16.20;99.90
21582;DHT22;10952;50.836;4.348;2022-10-31T08:06:35;16.40;99.90
21582;DHT22;10952;50.836;4.348;2022-10-31T08:09:00;16.40;99.90
21582;DHT22;10952;50.836;4.348;2022-10-31T08:11:26;16.50;99.90
21582;DHT22;10952;50.836;4.348;2022-10-31T08:13:52;16.70;99.90
21582;DHT22;10952;50.836;4.348;2022-10-31T08:16:17;16.70;99.90
21582;DHT22;10952;50.836;4.348;2022-10-31T08:18:43;16.50;99.90
21582;DHT22;10952;50.836;4.348;2022-10-31T08:21:08;16.50;99.90
21582;DHT22;10952;50.836;4.348;2022-10-31T08:23:34;16.60;99.90
21582;DHT22;10952;50.836;4.348;2022-10-31T08:26:00;16.80;99.90
21582;DHT22;10952;50.836;4.348;2022-10-31T08:28:25;16.90;99.90
21582;DHT22;10952;50.836;4.348;2022-10-31T08:30:51;16.90;99.90
21582;DHT22;10952;50.836;4.348;2022-10-31T08:33:17;17.00;99.90
21582;DHT22;10952;50.836;4.348;2022-10-31T08:35:43;17.10;99.90
21582;DHT22;10952;50.836;4.348;2022-10-31T08:38:11;17.00;99.90
21582;DHT22;10952;50.836;4.348;2022-10-31T08:40:37;16.80;99.90
21582;DHT22;10952;50.836;4.348;2022-10-31T08:43:06;16.70;99.90
21582;DHT22;10952;50.836;4.348;2022-10-31T08:45:33;16.80;99.90
21582;DHT22;10952;50.836;4.348;2022-10-31T08:48:00;16.80;99.90
21582;DHT22;10952;50.836;4.348;2022-10-31T08:50:27;17.00;99.90
21582;DHT22;10952;50.836;4.348;2022-10-31T08:52:58;17.10;99.90
21582;DHT22;10952;50.836;4.348;2022-10-31T08:55:24;17.10;99.90
21582;DHT22;10952;50.836;4.348;2022-10-31T08:57:55;17.00;99.90
21582;DHT22;10952;50.836;4.348;2022-10-31T09:00:21;17.00;99.90
21582;DHT22;10952;50.836;4.348;2022-10-31T09:02:46;17.20;99.90
21582;DHT22;10952;50.836;4.348;2022-10-31T09:05:12;17.30;99.90
21582;DHT22;10952;50.836;4.348;2022-10-31T09:07:38;17.40;99.90
21582;DHT22;10952;50.836;4.348;2022-10-31T09:10:03;17.40;99.90
21582;DHT22;10952;50.836;4.348;2022-10-31T09:12:29;17.40;99.90
21582;DHT22;10952;50.836;4.348;2022-10-31T09:14:55;17.50;99.90
21582;DHT22;10952;50.836;4.348;2022-10-31T09:17:20;17.40;99.90
21582;DHT22;10952;50.836;4.348;2022-10-31T09:19:46;17.30;99.90
21582;DHT22;10952;50.836;4.348;2022-10-31T09:22:12;17.20;99.90
21582;DHT22;10952;50.836;4.348;2022-10-31T09:24:37;17.30;99.90
21582;DHT22;10952;50.836;4.348;2022-10-31T09:27:03;17.20;99.90
21582;DHT22;10952;50.836;4.348;2022-10-31T09:29:29;17.20;99.90
21582;DHT22;10952;50.836;4.348;2022-10-31T09:31:56;17.10;99.90
21582;DHT22;10952;50.836;4.348;2022-10-31T09:34:22;17.00;99.90
21582;DHT22;10952;50.836;4.348;2022-10-31T09:36:47;17.10;99.90
21582;DHT22;10952;50.836;4.348;2022-10-31T09:39:13;17.20;99.90
21582;DHT22;10952;50.836;4.348;2022-10-31T09:46:50;17.20;99.90
21582;DHT22;10952;50.836;4.348;2022-10-31T09:52:13;17.50;99.90
21582;DHT22;10952;50.836;4.348;2022-10-31T09:57:41;17.40;99.90
21582;DHT22;10952;50.836;4.348;2022-10-31T10:00:15;17.50;99.90
21582;DHT22;10952;50.836;4.348;2022-10-31T10:02:48;17.60;99.90
21582;DHT22;10952;50.836;4.348;2022-10-31T10:05:54;17.70;99.90
21582;DHT22;10952;50.836;4.348;2022-10-31T10:08:26;17.90;99.90
21582;DHT22;10952;50.836;4.348;2022-10-31T10:11:15;18.10;99.90
21582;DHT22;10952;50.836;4.348;2022-10-31T10:22:32;18.60;99.90
21582;DHT22;10952;50.836;4.348;2022-10-31T10:25:30;18.70;99.90
21582;DHT22;10952;50.836;4.348;2022-10-31T10:31:02;18.70;99.90
21582;DHT22;10952;50.836;4.348;2022-10-31T10:33:42;18.80;99.90
21582;DHT22;10952;50.836;4.348;2022-10-31T10:36:17;18.70;99.90
21582;DHT22;10952;50.836;4.348;2022-10-31T10:38:53;18.70;99.90
21582;DHT22;10952;50.836;4.348;2022-10-31T10:41:23;18.70;99.90
21582;DHT22;10952;50.836;4.348;2022-10-31T10:43:50;18.70;99.90
21582;DHT22;10952;50.836;4.348;2022-10-31T10:52:48;18.70;99.90
21582;DHT22;10952;50.836;4.348;2022-10-31T11:03:00;19.20;99.90
21582;DHT22;10952;50.836;4.348;2022-10-31T11:07:55;19.20;99.90
21582;DHT22;10952;50.836;4.348;2022-10-31T11:10:20;19.30;99.90
21582;DHT22;10952;50.836;4.348;2022-10-31T11:15:26;19.30;99.90
21582;DHT22;10952;50.836;4.348;2022-10-31T11:17:54;19.40;99.90
21582;DHT22;10952;50.836;4.348;2022-10-31T11:22:47;19.50;99.90
21582;DHT22;10952;50.836;4.348;2022-10-31T11:27:46;19.50;99.90
21582;DHT22;10952;50.836;4.348;2022-10-31T11:30:14;19.60;99.90
21582;DHT22;10952;50.836;4.348;2022-10-31T11:32:48;19.80;99.90
21582;DHT22;10952;50.836;4.348;2022-10-31T11:35:17;19.90;99.90
21582;DHT22;10952;50.836;4.348;2022-10-31T11:37:45;19.80;99.90
21582;DHT22;10952;50.836;4.348;2022-10-31T11:40:18;19.80;99.90
21582;DHT22;10952;50.836;4.348;2022-10-31T11:42:44;19.80;99.90
21582;DHT22;10952;50.836;4.348;2022-10-31T11:45:27;19.90;99.90
21582;DHT22;10952;50.836;4.348;2022-10-31T11:47:54;20.00;99.90
21582;DHT22;10952;50.836;4.348;2022-10-31T11:50:24;20.20;99.90
21582;DHT22;10952;50.836;4.348;2022-10-31T11:52:52;19.90;99.90
21582;DHT22;10952;50.836;4.348;2022-10-31T11:55:38;19.90;99.90
21582;DHT22;10952;50.836;4.348;2022-10-31T11:58:24;19.90;99.90
21582;DHT22;10952;50.836;4.348;2022-10-31T12:00:55;19.90;99.90
21582;DHT22;10952;50.836;4.348;2022-10-31T12:08:38;20.30;99.90
21582;DHT22;10952;50.836;4.348;2022-10-31T12:11:31;20.60;99.90
21582;DHT22;10952;50.836;4.348;2022-10-31T12:14:12;21.30;99.90
21582;DHT22;10952;50.836;4.348;2022-10-31T12:16:52;21.80;99.90
21582;DHT22;10952;50.836;4.348;2022-10-31T12:25:03;22.40;99.90
21582;DHT22;10952;50.836;4.348;2022-10-31T12:27:33;22.60;99.90
21582;DHT22;10952;50.836;4.348;2022-10-31T12:30:15;22.90;99.90
21582;DHT22;10952;50.836;4.348;2022-10-31T12:35:40;23.30;99.90
21582;DHT22;10952;50.836;4.348;2022-10-31T12:38:25;23.30;99.90
21582;DHT22;10952;50.836;4.348;2022-10-31T12:45:57;23.30;99.90
21582;DHT22;10952;50.836;4.348;2022-10-31T12:51:32;23.50;99.90
21582;DHT22;10952;50.836;4.348;2022-10-31T12:59:40;22.90;99.90
21582;DHT22;10952;50.836;4.348;2022-10-31T13:02:24;23.20;99.90
21582;DHT22;10952;50.836;4.348;2022-10-31T13:04:56;23.20;99.90
21582;DHT22;10952;50.836;4.348;2022-10-31T13:07:46;23.40;99.90
21582;DHT22;10952;50.836;4.348;2022-10-31T13:12:46;23.30;99.90
21582;DHT22;10952;50.836;4.348;2022-10-31T13:15:22;23.40;99.90
21582;DHT22;10952;50.836;4.348;2022-10-31T13:17:57;23.30;99.90
21582;DHT22;10952;50.836;4.348;2022-10-31T13:20:42;23.10;99.90
21582;DHT22;10952;50.836;4.348;2022-10-31T13:25:53;22.70;99.90
21582;DHT22;10952;50.836;4.348;2022-10-31T13:28:40;22.40;99.90
21582;DHT22;10952;50.836;4.348;2022-10-31T13:31:08;22.00;99.90
21582;DHT22;10952;50.836;4.348;2022-10-31T13:33:43;21.90;99.90
21582;DHT22;10952;50.836;4.348;2022-10-31T13:36:21;21.70;99.90
21582;DHT22;10952;50.836;4.348;2022-10-31T13:38:55;21.70;99.90
21582;DHT22;10952;50.836;4.348;2022-10-31T13:41:49;21.70;99.90
21582;DHT22;10952;50.836;4.348;2022-10-31T13:44:27;21.60;99.90
21582;DHT22;10952;50.836;4.348;2022-10-31T13:46:55;21.40;99.90
21582;DHT22;10952;50.836;4.348;2022-10-31T13:54:38;21.50;99.90
21582;DHT22;10952;50.836;4.348;2022-10-31T13:57:46;21.70;99.90
21582;DHT22;10952;50.836;4.348;2022-10-31T14:02:49;21.70;99.90
21582;DHT22;10952;50.836;4.348;2022-10-31T14:05:22;21.60;99.90
21582;DHT22;10952;50.836;4.348;2022-10-31T14:07:50;21.50;99.90
21582;DHT22;10952;50.836;4.348;2022-10-31T14:10:36;21.50;99.90
21582;DHT22;10952;50.836;4.348;2022-10-31T14:13:12;21.60;99.90
21582;DHT22;10952;50.836;4.348;2022-10-31T14:15:43;21.50;99.90
21582;DHT22;10952;50.836;4.348;2022-10-31T14:18:37;21.40;99.90
21582;DHT22;10952;50.836;4.348;2022-10-31T14:23:51;21.20;99.90
21582;DHT22;10952;50.836;4.348;2022-10-31T14:28:50;21.10;99.90
21582;DHT22;10952;50.836;4.348;2022-10-31T14:34:30;21.10;99.90
21582;DHT22;10952;50.836;4.348;2022-10-31T14:45:43;20.90;99.90
21582;DHT22;10952;50.836;4.348;2022-10-31T14:51:21;21.00;99.90
21582;DHT22;10952;50.836;4.348;2022-10-31T14:53:51;21.20;99.90
21582;DHT22;10952;50.836;4.348;2022-10-31T14:56:30;21.10;99.90
21582;DHT22;10952;50.836;4.348;2022-10-31T14:59:02;21.00;99.90
21582;DHT22;10952;50.836;4.348;2022-10-31T15:01:33;21.10;99.90
21582;DHT22;10952;50.836;4.348;2022-10-31T15:04:16;21.10;99.90
21582;DHT22;10952;50.836;4.348;2022-10-31T15:06:45;21.20;99.90
21582;DHT22;10952;50.836;4.348;2022-10-31T15:11:47;21.20;99.90
21582;DHT22;10952;50.836;4.348;2022-10-31T15:14:30;21.10;99.90
21582;DHT22;10952;50.836;4.348;2022-10-31T15:17:02;20.90;99.90
21582;DHT22;10952;50.836;4.348;2022-10-31T15:19:30;20.90;99.90
21582;DHT22;10952;50.836;4.348;2022-10-31T15:21:57;20.90;99.90
21582;DHT22;10952;50.836;4.348;2022-10-31T15:24:32;20.60;99.90
21582;DHT22;10952;50.836;4.348;2022-10-31T15:26:59;20.40;99.90
21582;DHT22;10952;50.836;4.348;2022-10-31T15:29:27;20.30;99.90
21582;DHT22;10952;50.836;4.348;2022-10-31T15:35:09;20.10;99.90
21582;DHT22;10952;50.836;4.348;2022-10-31T15:37:35;20.10;99.90
21582;DHT22;10952;50.836;4.348;2022-10-31T15:40:11;20.10;99.90
21582;DHT22;10952;50.836;4.348;2022-10-31T15:42:40;20.00;99.90
21582;DHT22;10952;50.836;4.348;2022-10-31T15:47:35;19.90;99.90
21582;DHT22;10952;50.836;4.348;2022-10-31T15:50:02;19.80;99.90
21582;DHT22;10952;50.836;4.348;2022-10-31T15:52:41;19.70;99.90
21582;DHT22;10952;50.836;4.348;2022-10-31T15:55:24;19.70;99.90
21582;DHT22;10952;50.836;4.348;2022-10-31T15:58:02;19.60;99.90
21582;DHT22;10952;50.836;4.348;2022-10-31T16:00:32;19.50;99.90
21582;DHT22;10952;50.836;4.348;2022-10-31T16:03:23;19.40;99.90
21582;DHT22;10952;50.836;4.348;2022-10-31T16:05:52;19.50;99.90
21582;DHT22;10952;50.836;4.348;2022-10-31T16:10:52;19.50;99.90
21582;DHT22;10952;50.836;4.348;2022-10-31T16:13:23;19.40;99.90
21582;DHT22;10952;50.836;4.348;2022-10-31T16:15:51;19.40;99.90
21582;DHT22;10952;50.836;4.348;2022-10-31T16:18:18;19.30;99.90
21582;DHT22;10952;50.836;4.348;2022-10-31T16:20:51;19.30;99.90
21582;DHT22;10952;50.836;4.348;2022-10-31T16:23:20;19.40;99.90
21582;DHT22;10952;50.836;4.348;2022-10-31T16:25:47;19.40;99.90
21582;DHT22;10952;50.836;4.348;2022-10-31T16:28:19;19.20;99.90
21582;DHT22;10952;50.836;4.348;2022-10-31T16:30:48;19.20;99.90
21582;DHT22;10952;50.836;4.348;2022-10-31T16:35:46;19.20;99.90
21582;DHT22;10952;50.836;4.348;2022-10-31T16:38:12;19.10;99.90
21582;DHT22;10952;50.836;4.348;2022-10-31T16:40:38;19.10;99.90
21582;DHT22;10952;50.836;4.348;2022-10-31T16:43:04;19.00;99.90
21582;DHT22;10952;50.836;4.348;2022-10-31T16:45:31;18.90;99.90
21582;DHT22;10952;50.836;4.348;2022-10-31T16:48:11;18.80;99.90
21582;DHT22;10952;50.836;4.348;2022-10-31T16:50:37;18.80;99.90
21582;DHT22;10952;50.836;4.348;2022-10-31T16:53:03;18.70;99.90
21582;DHT22;10952;50.836;4.348;2022-10-31T16:55:29;18.80;99.90
21582;DHT22;10952;50.836;4.348;2022-10-31T16:57:57;18.70;99.90
21582;DHT22;10952;50.836;4.348;2022-10-31T17:00:24;18.70;99.90
21582;DHT22;10952;50.836;4.348;2022-10-31T17:02:53;18.70;99.90
21582;DHT22;10952;50.836;4.348;2022-10-31T17:05:21;18.70;99.90
21582;DHT22;10952;50.836;4.348;2022-10-31T17:07:47;18.70;99.90
21582;DHT22;10952;50.836;4.348;2022-10-31T17:10:14;18.70;99.90
21582;DHT22;10952;50.836;4.348;2022-10-31T17:12:45;18.80;99.90
21582;DHT22;10952;50.836;4.348;2022-10-31T17:15:16;18.80;99.90
21582;DHT22;10952;50.836;4.348;2022-10-31T17:17:43;18.70;99.90
21582;DHT22;10952;50.836;4.348;2022-10-31T17:20:24;18.70;99.90
21582;DHT22;10952;50.836;4.348;2022-10-31T17:22:50;18.80;99.90
21582;DHT22;10952;50.836;4.348;2022-10-31T17:25:25;18.70;99.90
21582;DHT22;10952;50.836;4.348;2022-10-31T17:27:50;18.80;99.90
21582;DHT22;10952;50.836;4.348;2022-10-31T17:30:17;18.70;99.90
21582;DHT22;10952;50.836;4.348;2022-10-31T17:32:44;18.70;99.90
21582;DHT22;10952;50.836;4.348;2022-10-31T17:35:11;18.80;99.90
21582;DHT22;10952;50.836;4.348;2022-10-31T17:37:38;18.80;99.90
21582;DHT22;10952;50.836;4.348;2022-10-31T17:40:04;18.80;99.90
21582;DHT22;10952;50.836;4.348;2022-10-31T17:42:30;18.70;99.90
21582;DHT22;10952;50.836;4.348;2022-10-31T17:44:56;18.70;99.90
21582;DHT22;10952;50.836;4.348;2022-10-31T17:47:22;18.70;99.90
21582;DHT22;10952;50.836;4.348;2022-10-31T17:49:48;18.80;99.90
21582;DHT22;10952;50.836;4.348;2022-10-31T17:52:14;18.70;99.90
21582;DHT22;10952;50.836;4.348;2022-10-31T17:54:39;18.70;99.90
21582;DHT22;10952;50.836;4.348;2022-10-31T17:57:05;18.70;99.90
21582;DHT22;10952;50.836;4.348;2022-10-31T17:59:30;18.60;99.90
21582;DHT22;10952;50.836;4.348;2022-10-31T18:01:56;18.70;99.90
21582;DHT22;10952;50.836;4.348;2022-10-31T18:04:22;18.60;99.90
21582;DHT22;10952;50.836;4.348;2022-10-31T18:06:48;18.60;99.90
21582;DHT22;10952;50.836;4.348;2022-10-31T18:09:15;18.60;99.90
21582;DHT22;10952;50.836;4.348;2022-10-31T18:11:41;18.50;99.90
21582;DHT22;10952;50.836;4.348;2022-10-31T18:14:08;18.50;99.90
21582;DHT22;10952;50.836;4.348;2022-10-31T18:16:34;18.40;99.90